createdAt,value
2022-09-05T00:01:28.934Z,16.48
2022-09-05T00:04:24.317Z,16.24
2022-09-05T00:07:03.100Z,16.05
2022-09-05T00:09:55.086Z,16.00
2022-09-05T00:12:23.625Z,16.10
2022-09-05T00:15:18.689Z,16.10
2022-09-05T00:20:02.969Z,16.01
2022-09-05T00:24:20.780Z,15.97
2022-09-05T00:24:28.939Z,16.18
2022-09-05T00:26:58.988Z,16.02
2022-09-05T00:31:07.419Z,16.05
2022-09-05T00:32:43.948Z,15.88
2022-09-05T00:35:29.143Z,15.83
2022-09-05T00:37:58.310Z,15.76
2022-09-05T00:40:30.121Z,15.78
2022-09-05T00:43:01.059Z,15.76
2022-09-05T00:45:36.072Z,15.89
2022-09-05T00:48:18.047Z,15.93
2022-09-05T00:50:58.875Z,15.96
2022-09-05T00:53:37.505Z,16.12
2022-09-05T00:56:16.835Z,16.19
2022-09-05T00:58:59.489Z,16.23
2022-09-05T01:01:31.826Z,16.12
2022-09-05T01:04:17.124Z,15.75
2022-09-05T01:07:02.927Z,15.69
2022-09-05T01:09:44.835Z,15.82
2022-09-05T01:12:28.136Z,15.64
2022-09-05T01:15:09.088Z,15.54
2022-09-05T01:17:48.440Z,15.52
2022-09-05T01:20:44.503Z,15.65
2022-09-05T01:23:30.650Z,15.49
2022-09-05T01:26:24.171Z,15.52
2022-09-05T01:29:17.947Z,15.45
2022-09-05T01:32:03.502Z,15.59
2022-09-05T01:34:39.524Z,15.67
2022-09-05T01:37:33.062Z,15.66
2022-09-05T01:40:17.169Z,15.60
2022-09-05T01:42:56.853Z,15.46
2022-09-05T01:45:33.247Z,15.56
2022-09-05T01:48:14.015Z,15.63
2022-09-05T01:50:50.559Z,15.64
2022-09-05T01:53:39.226Z,15.71
2022-09-05T01:56:40.106Z,15.80
2022-09-05T01:59:29.467Z,15.69
2022-09-05T02:02:13.746Z,15.79
2022-09-05T02:05:07.174Z,15.71
2022-09-05T02:07:46.165Z,15.75
2022-09-05T02:10:38.219Z,15.58
2022-09-05T02:13:16.710Z,15.70
2022-09-05T02:15:59.232Z,15.88
2022-09-05T02:18:33.540Z,15.79
2022-09-05T02:21:03.385Z,15.55
2022-09-05T02:23:42.594Z,15.32
2022-09-05T02:26:16.327Z,15.42
2022-09-05T02:28:51.399Z,15.59
2022-09-05T02:31:27.309Z,15.66
2022-09-05T02:34:02.267Z,15.67
2022-09-05T02:36:36.520Z,15.62
2022-09-05T02:44:13.831Z,15.75
2022-09-05T02:45:18.726Z,15.79
2022-09-05T02:45:26.814Z,15.91
2022-09-05T02:48:08.344Z,15.52
2022-09-05T02:57:23.822Z,15.49
2022-09-05T02:57:33.494Z,15.37
2022-09-05T02:57:43.481Z,15.21
2022-09-05T02:59:43.291Z,15.32
2022-09-05T03:02:19.678Z,15.32
2022-09-05T03:05:05.148Z,14.99
2022-09-05T03:07:54.142Z,15.16
2022-09-05T03:10:55.098Z,15.15
2022-09-05T03:13:56.932Z,15.02
2022-09-05T03:16:47.743Z,15.18
2022-09-05T03:19:51.220Z,15.14
2022-09-05T03:22:46.395Z,14.94
2022-09-05T03:25:41.432Z,14.77
2022-09-05T03:28:35.939Z,14.99
2022-09-05T03:31:23.106Z,14.65
2022-09-05T03:34:26.243Z,14.69
2022-09-05T03:37:16.821Z,14.73
2022-09-05T03:40:16.798Z,14.97
2022-09-05T03:43:02.168Z,15.00
2022-09-05T03:45:57.043Z,14.97
2022-09-05T03:48:43.220Z,14.89
2022-09-05T03:57:07.377Z,14.95
2022-09-05T03:57:24.262Z,14.86
2022-09-05T03:57:42.684Z,14.57
2022-09-05T04:00:20.797Z,14.72
2022-09-05T04:07:00.378Z,14.72
2022-09-05T04:08:19.116Z,14.68
2022-09-05T04:08:50.390Z,14.60
2022-09-05T04:11:28.797Z,14.74
2022-09-05T04:14:01.417Z,14.57
2022-09-05T04:16:33.337Z,14.80
2022-09-05T04:19:11.516Z,14.76
2022-09-05T04:21:47.362Z,14.85
2022-09-05T04:24:28.730Z,14.99
2022-09-05T04:27:27.970Z,15.03
2022-09-05T04:30:00.703Z,14.95
2022-09-05T04:32:54.786Z,14.93
2022-09-05T04:35:30.682Z,14.80
2022-09-05T04:38:06.304Z,15.02
2022-09-05T04:40:43.087Z,15.04
2022-09-05T04:43:18.949Z,15.00
2022-09-05T04:45:53.354Z,14.99
2022-09-05T04:48:27.350Z,15.01
2022-09-05T04:51:08.214Z,14.88
2022-09-05T04:54:02.068Z,14.87
2022-09-05T04:56:33.708Z,14.97
2022-09-05T05:01:01.711Z,14.96
2022-09-05T05:06:13.902Z,14.98
2022-09-05T05:06:14.074Z,15.06
2022-09-05T05:07:41.350Z,14.99
2022-09-05T05:14:17.536Z,15.00
2022-09-05T05:17:59.036Z,15.28
2022-09-05T05:18:14.998Z,15.26
2022-09-05T05:19:03.021Z,15.24
2022-09-05T05:21:34.873Z,15.52
2022-09-05T05:24:10.013Z,15.45
2022-09-05T05:26:45.812Z,15.55
2022-09-05T05:29:20.530Z,15.62
2022-09-05T05:31:52.124Z,15.63
2022-09-05T05:34:25.209Z,15.58
2022-09-05T05:37:02.797Z,15.59
2022-09-05T05:39:31.754Z,15.68
2022-09-05T05:42:20.745Z,15.86
2022-09-05T05:44:53.830Z,16.08
2022-09-05T05:47:31.304Z,16.12
2022-09-05T05:50:04.127Z,16.34
2022-09-05T05:52:41.696Z,16.30
2022-09-05T05:55:51.338Z,16.57
2022-09-05T05:58:33.346Z,16.85
2022-09-05T06:01:37.162Z,16.92
2022-09-05T06:04:27.317Z,17.04
2022-09-05T06:07:10.078Z,17.06
2022-09-05T06:14:49.990Z,17.23
2022-09-05T06:14:59.698Z,17.39
2022-09-05T06:16:32.605Z,17.45
2022-09-05T06:19:21.791Z,17.78
2022-09-05T06:22:13.254Z,17.82
2022-09-05T06:25:22.945Z,18.09
2022-09-05T06:28:19.713Z,18.26
2022-09-05T06:30:57.185Z,18.40
2022-09-05T06:34:04.073Z,18.42
2022-09-05T06:36:45.534Z,18.61
2022-09-05T06:39:19.788Z,18.67
2022-09-05T06:41:58.031Z,18.77
2022-09-05T06:44:49.120Z,18.98
2022-09-05T06:47:33.761Z,19.09
2022-09-05T06:50:26.745Z,19.27
2022-09-05T06:53:36.296Z,19.55
2022-09-05T06:56:25.504Z,19.72
2022-09-05T06:59:35.679Z,19.92
2022-09-05T07:02:09.873Z,20.10
2022-09-05T07:05:23.799Z,20.23
2022-09-05T07:07:36.586Z,20.37
2022-09-05T07:10:28.213Z,20.49
2022-09-05T07:13:06.645Z,20.67
2022-09-05T07:15:45.676Z,20.69
2022-09-05T07:18:22.112Z,20.83
2022-09-05T07:21:17.283Z,20.70
2022-09-05T07:24:09.255Z,20.78
2022-09-05T07:26:42.349Z,21.01
2022-09-05T07:29:23.857Z,21.26
2022-09-05T07:31:56.184Z,21.29
2022-09-05T07:34:28.535Z,21.29
2022-09-05T07:37:14.220Z,21.49
2022-09-05T07:39:49.241Z,21.37
2022-09-05T07:42:22.870Z,21.30
2022-09-05T07:44:56.403Z,21.38
2022-09-05T07:47:29.829Z,21.36
2022-09-05T07:51:00.649Z,21.55
2022-09-05T07:56:54.711Z,21.64
2022-09-05T07:57:10.787Z,21.65
2022-09-05T07:58:41.620Z,22.02
2022-09-05T08:01:12.672Z,22.18
2022-09-05T08:03:43.143Z,22.49
2022-09-05T08:06:25.984Z,22.64
2022-09-05T08:09:43.914Z,22.34
2022-09-05T08:12:09.648Z,22.51
2022-09-05T08:14:50.547Z,22.67
2022-09-05T08:17:29.940Z,22.98
2022-09-05T08:20:13.681Z,23.16
2022-09-05T08:22:52.236Z,22.95
2022-09-05T08:25:25.550Z,23.15
2022-09-05T08:28:07.244Z,23.26
2022-09-05T08:30:44.044Z,23.46
2022-09-05T08:33:15.492Z,23.27
2022-09-05T08:35:48.714Z,23.28
2022-09-05T08:38:18.717Z,23.47
2022-09-05T08:40:55.152Z,23.70
2022-09-05T08:46:35.944Z,23.70
2022-09-05T08:46:40.813Z,23.80
2022-09-05T08:49:41.409Z,23.99
2022-09-05T08:52:22.309Z,23.73
2022-09-05T08:55:06.810Z,23.97
2022-09-05T08:58:00.278Z,24.18
2022-09-05T09:00:33.614Z,24.20
2022-09-05T09:03:08.901Z,24.30
2022-09-05T09:06:13.848Z,24.24
2022-09-05T09:08:56.113Z,24.50
2022-09-05T09:11:31.477Z,24.50
2022-09-05T09:14:35.331Z,25.00
2022-09-05T09:17:12.998Z,25.16
2022-09-05T09:19:51.070Z,24.94
2022-09-05T09:22:37.922Z,25.24
2022-09-05T09:25:16.135Z,25.47
2022-09-05T09:28:47.727Z,25.47
2022-09-05T09:30:58.977Z,25.71
2022-09-05T09:33:37.196Z,25.49
2022-09-05T09:36:10.963Z,25.22
2022-09-05T09:38:52.432Z,25.43
2022-09-05T09:41:40.231Z,25.50
2022-09-05T09:44:46.838Z,25.78
2022-09-05T09:47:22.151Z,26.04
2022-09-05T09:50:12.757Z,25.49
2022-09-05T09:53:00.495Z,25.39
2022-09-05T09:55:58.286Z,25.64
2022-09-05T09:58:37.544Z,25.86
2022-09-05T10:01:35.446Z,25.97
2022-09-05T10:07:41.802Z,25.80
2022-09-05T10:10:45.885Z,25.75
2022-09-05T10:11:19.643Z,26.10
2022-09-05T10:13:58.310Z,26.32
2022-09-05T10:16:53.388Z,26.70
2022-09-05T10:22:47.172Z,26.91
2022-09-05T10:25:42.333Z,27.03
2022-09-05T10:28:23.230Z,26.77
2022-09-05T10:33:16.956Z,26.54
2022-09-05T10:35:17.387Z,26.51
2022-09-05T10:36:52.364Z,26.44
2022-09-05T10:39:23.871Z,26.32
2022-09-05T10:41:55.991Z,26.73
2022-09-05T10:44:33.080Z,26.92
2022-09-05T10:47:17.021Z,26.57
2022-09-05T10:49:47.787Z,26.88
2022-09-05T10:52:21.114Z,26.89
2022-09-05T10:55:13.974Z,26.43
2022-09-05T10:57:56.012Z,26.76
2022-09-05T11:02:20.362Z,27.04
2022-09-05T11:03:50.194Z,27.12
2022-09-05T11:06:24.974Z,27.40
2022-09-05T11:09:01.351Z,27.30
2022-09-05T11:11:34.883Z,27.24
2022-09-05T11:14:07.325Z,26.93
2022-09-05T11:16:52.897Z,27.00
2022-09-05T11:19:30.711Z,27.13
2022-09-05T11:22:19.923Z,27.07
2022-09-05T11:24:55.550Z,26.89
2022-09-05T11:27:31.872Z,27.03
2022-09-05T11:30:05.116Z,27.02
2022-09-05T11:38:02.844Z,27.36
2022-09-05T11:40:02.703Z,27.34
2022-09-05T11:40:06.360Z,27.19
2022-09-05T11:42:30.877Z,27.08
2022-09-05T11:45:28.148Z,27.08
2022-09-05T11:48:38.495Z,27.04
2022-09-05T11:51:55.888Z,27.27
2022-09-05T11:54:50.003Z,27.54
2022-09-05T11:57:38.659Z,27.57
2022-09-05T12:00:31.383Z,27.35
2022-09-05T12:03:58.260Z,27.42
2022-09-05T12:06:47.808Z,27.57
2022-09-05T12:09:30.801Z,27.35
2022-09-05T12:12:27.009Z,27.39
2022-09-05T12:15:11.537Z,27.19
2022-09-05T12:17:49.411Z,27.27
2022-09-05T12:20:23.384Z,27.26
2022-09-05T12:23:01.343Z,27.35
2022-09-05T12:27:41.007Z,26.84
2022-09-05T12:29:32.607Z,26.67
2022-09-05T12:32:34.279Z,26.77
2022-09-05T12:36:08.894Z,26.84
2022-09-05T12:40:56.293Z,26.99
2022-09-05T12:41:34.505Z,27.04
2022-09-05T12:44:29.908Z,27.04
2022-09-05T12:46:24.706Z,27.07
2022-09-05T12:49:06.993Z,27.24
2022-09-05T12:51:46.081Z,27.31
2022-09-05T12:54:33.437Z,27.37
2022-09-05T13:01:03.618Z,27.46
2022-09-05T13:03:07.415Z,27.80
2022-09-05T13:03:14.501Z,27.70
2022-09-05T13:05:51.531Z,27.93
2022-09-05T13:08:22.224Z,27.48
2022-09-05T13:14:49.862Z,27.76
2022-09-05T13:14:58.995Z,28.11
2022-09-05T13:16:45.396Z,27.81
2022-09-05T13:19:26.052Z,27.61
2022-09-05T13:21:57.320Z,27.20
2022-09-05T13:24:30.672Z,27.07
2022-09-05T13:27:05.603Z,27.09
2022-09-05T13:30:09.861Z,26.81
2022-09-05T13:37:58.390Z,26.61
2022-09-05T13:38:00.005Z,26.71
2022-09-05T13:38:47.903Z,26.80
2022-09-05T13:41:27.200Z,26.86
2022-09-05T13:44:00.406Z,26.89
2022-09-05T13:46:58.250Z,26.99
2022-09-05T13:49:32.340Z,26.82
2022-09-05T13:52:16.470Z,26.72
2022-09-05T13:54:51.295Z,26.81
2022-09-05T13:57:33.306Z,26.87
2022-09-05T14:00:27.732Z,26.59
2022-09-05T14:03:38.816Z,26.39
2022-09-05T14:06:46.575Z,26.41
2022-09-05T14:09:42.640Z,26.28
2022-09-05T14:12:29.435Z,26.38
2022-09-05T14:15:09.700Z,26.30
2022-09-05T14:17:56.611Z,26.42
2022-09-05T14:20:50.332Z,26.47
2022-09-05T14:23:19.464Z,26.10
2022-09-05T14:25:52.536Z,25.94
2022-09-05T14:28:27.178Z,25.80
2022-09-05T14:34:38.337Z,25.65
2022-09-05T14:37:41.744Z,25.51
2022-09-05T14:37:51.713Z,25.91
2022-09-05T14:40:44.573Z,26.23
2022-09-05T14:43:47.816Z,26.45
2022-09-05T14:46:38.768Z,26.28
2022-09-05T14:49:21.691Z,26.08
2022-09-05T14:51:52.787Z,26.19
2022-09-05T15:02:05.353Z,26.14
2022-09-05T15:02:58.672Z,26.08
2022-09-05T15:03:03.856Z,26.04
2022-09-05T15:05:41.602Z,25.81
2022-09-05T15:09:27.289Z,25.92
2022-09-05T15:12:17.892Z,25.85
2022-09-05T15:13:57.990Z,25.65
2022-09-05T15:16:26.413Z,25.61
2022-09-05T15:18:56.200Z,25.61
2022-09-05T15:21:33.277Z,25.49
2022-09-05T15:24:14.678Z,25.51
2022-09-05T15:26:52.716Z,25.11
2022-09-05T15:29:23.299Z,25.15
2022-09-05T15:31:58.923Z,25.15
2022-09-05T15:34:38.736Z,25.00
2022-09-05T15:37:23.011Z,25.07
2022-09-05T15:40:01.632Z,25.17
2022-09-05T15:42:32.492Z,25.18
2022-09-05T15:45:10.720Z,25.11
2022-09-05T15:47:40.044Z,24.97
2022-09-05T15:50:22.227Z,24.89
2022-09-05T15:52:52.696Z,24.87
2022-09-05T15:55:25.996Z,24.80
2022-09-05T15:57:56.332Z,24.86
2022-09-05T16:00:42.458Z,24.70
2022-09-05T16:06:10.724Z,24.59
2022-09-05T16:10:29.755Z,24.56
2022-09-05T16:10:47.006Z,24.54
2022-09-05T16:12:14.071Z,24.49
2022-09-05T16:15:23.121Z,24.42
2022-09-05T16:21:05.318Z,24.21
2022-09-05T16:23:23.409Z,24.05
2022-09-05T16:23:41.728Z,23.80
2022-09-05T16:26:24.954Z,23.71
2022-09-05T16:28:59.715Z,23.67
2022-09-05T16:31:36.619Z,23.71
2022-09-05T16:34:11.906Z,23.55
2022-09-05T16:37:02.435Z,23.37
2022-09-05T16:39:39.613Z,23.37
2022-09-05T16:42:15.670Z,23.23
2022-09-05T16:44:50.563Z,23.12
2022-09-05T16:47:25.474Z,23.18
2022-09-05T16:50:01.894Z,23.25
2022-09-05T16:52:38.275Z,23.16
2022-09-05T16:55:21.507Z,23.15
2022-09-05T16:58:03.410Z,23.07
2022-09-05T17:00:50.852Z,22.91
2022-09-05T17:03:28.567Z,23.01
2022-09-05T17:06:09.006Z,22.93
2022-09-05T17:08:36.772Z,22.85
2022-09-05T17:11:18.409Z,22.83
2022-09-05T17:13:58.244Z,22.81
2022-09-05T17:16:32.203Z,22.67
2022-09-05T17:19:02.379Z,22.65
2022-09-05T17:22:32.323Z,22.50
2022-09-05T17:29:19.272Z,22.44
2022-09-05T17:29:25.564Z,22.36
2022-09-05T17:31:26.580Z,22.35
2022-09-05T17:32:54.379Z,22.29
2022-09-05T17:35:42.236Z,22.27
2022-09-05T17:38:31.257Z,22.09
2022-09-05T17:41:25.314Z,22.07
2022-09-05T17:43:59.373Z,22.11
2022-09-05T17:46:29.615Z,22.01
2022-09-05T17:49:18.726Z,22.02
2022-09-05T17:52:17.436Z,21.96
2022-09-05T17:54:49.904Z,21.86
2022-09-05T17:57:37.608Z,21.90
2022-09-05T18:00:49.534Z,21.94
2022-09-05T18:04:17.056Z,21.77
2022-09-05T18:07:00.158Z,21.75
2022-09-05T18:13:30.990Z,21.71
2022-09-05T18:16:10.568Z,21.58
2022-09-05T18:19:32.855Z,21.64
2022-09-05T18:21:48.425Z,21.55
2022-09-05T18:24:33.286Z,21.48
2022-09-05T18:27:43.754Z,21.51
2022-09-05T18:30:09.049Z,21.52
2022-09-05T18:32:42.601Z,21.49
2022-09-05T18:35:36.159Z,21.19
2022-09-05T18:38:50.206Z,21.25
2022-09-05T18:41:21.808Z,21.11
2022-09-05T18:44:00.483Z,21.17
2022-09-05T18:46:46.592Z,21.26
2022-09-05T18:50:18.118Z,21.04
2022-09-05T18:52:13.656Z,21.16
2022-09-05T18:54:44.160Z,21.37
2022-09-05T18:57:28.857Z,21.15
2022-09-05T19:00:03.113Z,21.22
2022-09-05T19:02:51.293Z,21.00
2022-09-05T19:05:40.317Z,21.01
2022-09-05T19:08:28.816Z,21.02
2022-09-05T19:10:59.181Z,20.88
2022-09-05T19:13:32.493Z,20.78
2022-09-05T19:16:33.090Z,20.73
2022-09-05T19:19:11.432Z,20.47
2022-09-05T19:22:02.445Z,20.42
2022-09-05T19:24:45.185Z,20.39
2022-09-05T19:29:15.626Z,20.38
2022-09-05T19:36:44.494Z,20.25
2022-09-05T19:37:03.966Z,20.28
2022-09-05T19:37:15.102Z,20.26
2022-09-05T19:38:44.170Z,20.21
2022-09-05T19:47:31.294Z,20.11
2022-09-05T19:47:43.034Z,20.19
2022-09-05T19:47:48.946Z,20.16
2022-09-05T19:49:58.004Z,19.98
2022-09-05T19:52:25.435Z,19.99
2022-09-05T19:54:55.624Z,19.99
2022-09-05T19:57:24.396Z,20.11
2022-09-05T19:59:54.951Z,19.89
2022-09-05T20:02:29.848Z,19.94
2022-09-05T20:04:58.921Z,19.93
2022-09-05T20:07:28.462Z,19.89
2022-09-05T20:09:57.859Z,19.73
2022-09-05T20:12:30.956Z,19.65
2022-09-05T20:15:18.323Z,19.60
2022-09-05T20:17:47.554Z,19.52
2022-09-05T20:20:17.127Z,19.41
2022-09-05T20:22:50.437Z,19.59
2022-09-05T20:25:35.202Z,19.51
2022-09-05T20:28:10.235Z,19.30
2022-09-05T20:30:42.231Z,19.33
2022-09-05T20:33:18.828Z,19.22
2022-09-05T20:40:17.927Z,19.07
2022-09-05T20:43:11.391Z,19.23
2022-09-05T20:43:21.187Z,19.23
2022-09-05T20:44:21.019Z,19.15
2022-09-05T20:54:06.347Z,19.16
2022-09-05T20:54:13.741Z,19.15
2022-09-05T20:54:15.238Z,19.07
2022-09-05T20:55:39.687Z,19.09
2022-09-05T20:58:11.125Z,19.10
2022-09-05T21:00:42.171Z,19.04
2022-09-05T21:03:32.211Z,18.87
2022-09-05T21:06:12.735Z,18.53
2022-09-05T21:08:40.524Z,18.64
2022-09-05T21:11:08.539Z,18.65
2022-09-05T21:13:41.214Z,18.67
2022-09-05T21:16:22.753Z,18.57
2022-09-05T21:18:52.154Z,18.43
2022-09-05T21:21:28.412Z,18.36
2022-09-05T21:24:16.019Z,18.47
2022-09-05T21:26:44.646Z,18.07
2022-09-05T21:29:16.305Z,18.27
2022-09-05T21:31:45.657Z,18.12
2022-09-05T21:34:25.417Z,18.03
2022-09-05T21:37:07.643Z,18.12
2022-09-05T21:39:39.979Z,18.09
2022-09-05T21:43:21.650Z,18.20
2022-09-05T21:47:37.714Z,18.28
2022-09-05T21:47:53.339Z,18.17
2022-09-05T21:50:31.397Z,18.20
2022-09-05T21:53:48.286Z,18.24
2022-09-05T21:59:19.174Z,18.01
2022-09-05T21:59:29.033Z,18.05
2022-09-05T22:01:51.815Z,18.07
2022-09-05T22:04:18.588Z,17.97
2022-09-05T22:06:48.183Z,17.98
2022-09-05T22:09:17.469Z,17.93
2022-09-05T22:11:50.408Z,18.02
2022-09-05T22:14:18.860Z,17.95
2022-09-05T22:16:47.631Z,17.87
2022-09-05T22:19:17.723Z,17.82
2022-09-05T22:21:45.171Z,17.83
2022-09-05T22:24:13.284Z,17.78
2022-09-05T22:27:10.812Z,17.85
2022-09-05T22:29:34.389Z,17.88
2022-09-05T22:32:02.012Z,17.81
2022-09-05T22:34:29.420Z,17.68
2022-09-05T22:36:56.948Z,17.83
2022-09-05T22:39:36.358Z,17.85
2022-09-05T22:42:10.563Z,17.59
2022-09-05T22:44:38.474Z,17.55
2022-09-05T22:47:06.578Z,17.58
2022-09-05T22:49:34.111Z,17.45
2022-09-05T22:52:01.529Z,17.48
2022-09-05T22:54:28.909Z,17.42
2022-09-05T22:56:56.297Z,17.45
2022-09-05T22:59:24.996Z,17.54
2022-09-05T23:01:52.519Z,17.64
2022-09-05T23:04:20.003Z,17.85
2022-09-05T23:06:47.584Z,17.88
2022-09-05T23:09:15.352Z,17.86
2022-09-05T23:11:42.759Z,17.76
2022-09-05T23:14:10.148Z,17.77
2022-09-05T23:16:38.842Z,17.71
2022-09-05T23:19:06.279Z,17.73
2022-09-05T23:21:34.898Z,17.65
2022-09-05T23:24:02.433Z,17.53
2022-09-05T23:26:29.838Z,17.57
2022-09-05T23:28:57.228Z,17.57
2022-09-05T23:31:24.673Z,17.78
2022-09-05T23:33:55.458Z,17.79
2022-09-05T23:36:22.832Z,17.63
2022-09-05T23:38:50.223Z,17.73
2022-09-05T23:41:17.651Z,17.69
2022-09-05T23:43:45.046Z,17.62
2022-09-05T23:46:12.506Z,17.42
2022-09-05T23:48:40.378Z,17.42
2022-09-05T23:51:11.486Z,17.40
2022-09-05T23:53:39.712Z,17.31
2022-09-05T23:56:09.297Z,17.33
2022-09-05T23:58:37.389Z,17.38
